createdAt,value
2022-12-31T00:01:34.082Z,10.25
2022-12-31T00:04:02.583Z,12.57
2022-12-31T00:06:32.751Z,11.60
2022-12-31T00:09:03.724Z,7.55
2022-12-31T00:11:33.356Z,6.45
2022-12-31T00:14:02.431Z,14.30
2022-12-31T00:16:37.117Z,6.07
2022-12-31T00:19:07.760Z,7.03
2022-12-31T00:21:36.303Z,12.57
2022-12-31T00:24:05.250Z,7.80
2022-12-31T00:26:35.477Z,11.52
2022-12-31T00:29:04.869Z,7.15
2022-12-31T00:31:36.254Z,8.75
2022-12-31T00:34:05.925Z,6.00
2022-12-31T00:36:37.606Z,5.62
2022-12-31T00:39:08.419Z,5.05
2022-12-31T00:41:36.741Z,4.22
2022-12-31T00:44:05.039Z,5.00
2022-12-31T00:46:33.591Z,6.18
2022-12-31T00:49:01.714Z,11.52
2022-12-31T00:51:29.952Z,12.60
2022-12-31T00:53:58.853Z,10.10
2022-12-31T00:56:29.503Z,8.00
2022-12-31T00:58:58.193Z,14.38
2022-12-31T01:01:34.354Z,10.25
2022-12-31T01:04:09.792Z,9.77
2022-12-31T01:06:39.468Z,7.93
2022-12-31T01:09:08.882Z,12.13
2022-12-31T01:11:37.394Z,6.75
2022-12-31T01:14:09.856Z,11.45
2022-12-31T01:16:42.476Z,8.40
2022-12-31T01:19:14.890Z,16.40
2022-12-31T01:21:44.233Z,10.48
2022-12-31T01:24:13.232Z,11.63
2022-12-31T01:26:41.956Z,8.30
2022-12-31T01:29:11.626Z,22.90
2022-12-31T01:31:40.188Z,7.03
2022-12-31T01:34:08.493Z,10.32
2022-12-31T01:36:37.910Z,11.43
2022-12-31T01:39:08.250Z,6.72
2022-12-31T01:41:39.234Z,8.50
2022-12-31T01:44:13.563Z,11.07
2022-12-31T01:46:46.762Z,11.48
2022-12-31T01:49:22.774Z,8.27
2022-12-31T01:52:00.507Z,10.38
2022-12-31T01:54:33.143Z,4.55
2022-12-31T01:57:02.073Z,11.65
2022-12-31T01:59:31.700Z,14.35
2022-12-31T02:02:01.125Z,9.15
2022-12-31T02:04:30.235Z,10.60
2022-12-31T02:07:07.890Z,14.18
2022-12-31T02:09:39.400Z,10.43
2022-12-31T02:12:08.961Z,8.98
2022-12-31T02:14:44.598Z,14.07
2022-12-31T02:17:24.731Z,14.23
2022-12-31T02:20:58.394Z,11.27
2022-12-31T02:23:35.569Z,11.30
2022-12-31T02:26:31.126Z,9.95
2022-12-31T02:29:17.234Z,13.38
2022-12-31T02:31:55.038Z,6.55
2022-12-31T02:34:54.824Z,10.35
2022-12-31T02:37:27.582Z,3.67
2022-12-31T02:39:57.649Z,6.95
2022-12-31T02:42:26.138Z,11.25
2022-12-31T02:44:54.467Z,6.85
2022-12-31T02:47:53.592Z,7.93
2022-12-31T02:50:28.336Z,10.93
2022-12-31T02:53:15.314Z,10.65
2022-12-31T02:56:09.976Z,12.37
2022-12-31T02:59:32.585Z,7.25
2022-12-31T03:02:15.870Z,11.30
2022-12-31T03:04:49.734Z,9.90
2022-12-31T03:07:21.794Z,7.75
2022-12-31T03:09:51.026Z,13.90
2022-12-31T03:12:41.095Z,9.05
2022-12-31T03:15:19.882Z,9.23
2022-12-31T03:17:51.593Z,8.25
2022-12-31T03:20:39.901Z,7.82
2022-12-31T03:23:11.677Z,14.60
2022-12-31T03:25:40.516Z,15.25
2022-12-31T03:28:14.830Z,7.07
2022-12-31T03:30:45.712Z,12.97
2022-12-31T03:33:14.161Z,9.00
2022-12-31T03:35:44.343Z,7.68
2022-12-31T03:38:12.886Z,6.95
2022-12-31T03:40:52.908Z,10.45
2022-12-31T03:43:21.096Z,7.22
2022-12-31T03:45:53.844Z,12.20
2022-12-31T03:48:23.330Z,13.82
2022-12-31T03:50:51.973Z,15.27
2022-12-31T03:53:20.173Z,9.43
2022-12-31T03:55:53.258Z,13.85
2022-12-31T03:58:22.574Z,6.68
2022-12-31T04:00:51.270Z,14.73
2022-12-31T04:03:19.847Z,13.32
2022-12-31T04:05:55.722Z,10.30
2022-12-31T04:08:24.713Z,16.92
2022-12-31T04:10:52.726Z,14.07
2022-12-31T04:13:21.440Z,8.13
2022-12-31T04:15:51.942Z,13.48
2022-12-31T04:18:20.287Z,11.23
2022-12-31T04:20:48.420Z,9.40
2022-12-31T04:23:17.295Z,11.23
2022-12-31T04:25:45.316Z,15.88
2022-12-31T04:28:13.444Z,12.57
2022-12-31T04:30:42.117Z,18.05
2022-12-31T04:33:10.219Z,8.60
2022-12-31T04:35:38.347Z,12.02
2022-12-31T04:38:06.927Z,12.90
2022-12-31T04:40:35.161Z,10.05
2022-12-31T04:43:03.397Z,5.65
2022-12-31T04:45:31.723Z,12.75
2022-12-31T04:47:59.804Z,10.65
2022-12-31T04:50:27.920Z,11.27
2022-12-31T04:52:56.231Z,11.55
2022-12-31T04:55:24.452Z,15.57
2022-12-31T04:57:52.612Z,8.48
2022-12-31T05:00:21.197Z,11.25
2022-12-31T05:02:49.603Z,15.10
2022-12-31T05:05:17.724Z,5.07
2022-12-31T05:07:46.098Z,11.60
2022-12-31T05:10:14.610Z,15.00
2022-12-31T05:12:42.639Z,9.45
2022-12-31T05:15:11.100Z,12.37
2022-12-31T05:17:39.171Z,14.25
2022-12-31T05:20:07.940Z,14.70
2022-12-31T05:22:36.706Z,8.95
2022-12-31T05:25:05.711Z,15.05
2022-12-31T05:27:34.123Z,12.00
2022-12-31T05:30:02.678Z,9.93
2022-12-31T05:32:31.354Z,11.65
2022-12-31T05:35:00.301Z,12.45
2022-12-31T05:37:29.902Z,11.00
2022-12-31T05:39:58.439Z,12.63
2022-12-31T05:42:26.847Z,7.60
2022-12-31T05:44:55.261Z,14.30
2022-12-31T05:47:23.901Z,15.02
2022-12-31T05:49:52.031Z,8.52
2022-12-31T05:52:20.860Z,7.95
2022-12-31T05:54:48.829Z,19.42
2022-12-31T05:57:16.995Z,10.70
2022-12-31T05:59:45.519Z,13.40
2022-12-31T06:02:13.739Z,7.70
2022-12-31T06:04:42.223Z,11.12
2022-12-31T06:07:10.244Z,38.00
2022-12-31T06:09:39.034Z,9.65
2022-12-31T06:12:07.506Z,10.45
2022-12-31T06:14:37.619Z,13.15
2022-12-31T06:17:09.421Z,10.93
2022-12-31T06:19:37.609Z,6.95
2022-12-31T06:22:05.808Z,11.80
2022-12-31T06:24:34.377Z,11.68
2022-12-31T06:27:02.573Z,15.13
2022-12-31T06:29:30.666Z,16.00
2022-12-31T06:31:59.206Z,18.92
2022-12-31T06:34:27.376Z,11.70
2022-12-31T06:36:55.482Z,17.62
2022-12-31T06:39:24.024Z,19.02
2022-12-31T06:41:52.190Z,9.68
2022-12-31T06:44:22.519Z,11.93
2022-12-31T06:46:51.994Z,11.68
2022-12-31T06:49:20.428Z,9.90
2022-12-31T06:51:48.721Z,12.07
2022-12-31T06:54:17.133Z,13.38
2022-12-31T06:56:45.535Z,9.95
2022-12-31T06:59:25.375Z,10.52
2022-12-31T07:02:08.423Z,6.15
2022-12-31T07:04:56.892Z,9.75
2022-12-31T07:07:38.738Z,8.13
2022-12-31T07:10:29.990Z,10.48
2022-12-31T07:13:10.943Z,11.25
2022-12-31T07:16:03.073Z,12.65
2022-12-31T07:18:43.596Z,15.50
2022-12-31T07:21:13.963Z,9.55
2022-12-31T07:23:43.427Z,6.70
2022-12-31T07:26:23.694Z,12.23
2022-12-31T07:29:12.333Z,7.55
2022-12-31T07:31:48.964Z,7.82
2022-12-31T07:34:44.734Z,10.77
2022-12-31T07:37:44.973Z,9.32
2022-12-31T07:40:24.377Z,11.52
2022-12-31T07:42:58.258Z,12.20
2022-12-31T07:45:38.464Z,15.30
2022-12-31T07:48:21.367Z,7.78
2022-12-31T07:50:50.999Z,15.15
2022-12-31T07:53:19.461Z,13.80
2022-12-31T07:55:58.311Z,6.55
2022-12-31T07:58:42.861Z,11.60
2022-12-31T08:01:16.946Z,6.47
2022-12-31T08:03:55.439Z,14.63
2022-12-31T08:06:35.648Z,9.48
2022-12-31T08:09:11.328Z,9.48
2022-12-31T08:12:00.569Z,9.23
2022-12-31T08:14:29.878Z,10.95
2022-12-31T08:16:58.520Z,13.45
2022-12-31T08:19:28.677Z,14.30
2022-12-31T08:22:17.297Z,14.10
2022-12-31T08:25:06.907Z,9.93
2022-12-31T08:28:09.094Z,6.00
2022-12-31T08:30:55.243Z,4.68
2022-12-31T08:33:35.418Z,11.40
2022-12-31T08:36:20.843Z,15.13
2022-12-31T08:39:02.879Z,23.38
2022-12-31T08:41:42.447Z,15.43
2022-12-31T08:44:25.823Z,12.65
2022-12-31T08:47:02.637Z,15.95
2022-12-31T08:49:34.920Z,8.55
2022-12-31T08:52:04.186Z,16.48
2022-12-31T08:54:32.916Z,13.30
2022-12-31T08:57:25.254Z,11.30
2022-12-31T09:00:07.107Z,20.30
2022-12-31T09:02:47.730Z,14.75
2022-12-31T09:05:20.021Z,12.98
2022-12-31T09:08:03.409Z,8.07
2022-12-31T09:10:57.236Z,9.15
2022-12-31T09:13:48.763Z,9.40
2022-12-31T09:16:20.885Z,9.40
2022-12-31T09:18:48.990Z,10.13
2022-12-31T09:21:17.498Z,8.02
2022-12-31T09:23:45.985Z,12.30
2022-12-31T09:26:29.590Z,9.35
2022-12-31T09:29:16.363Z,15.90
2022-12-31T09:32:23.972Z,13.60
2022-12-31T09:35:04.191Z,16.10
2022-12-31T09:37:44.313Z,9.32
2022-12-31T09:40:50.313Z,21.48
2022-12-31T09:43:18.521Z,12.45
2022-12-31T09:46:05.659Z,9.70
2022-12-31T09:48:58.801Z,17.85
2022-12-31T09:51:55.828Z,14.18
2022-12-31T09:54:45.329Z,14.68
2022-12-31T09:57:16.611Z,16.77
2022-12-31T10:00:11.424Z,12.48
2022-12-31T10:03:18.516Z,13.40
2022-12-31T10:06:08.650Z,15.25
2022-12-31T10:09:10.748Z,20.88
2022-12-31T10:11:47.931Z,15.38
2022-12-31T10:14:45.448Z,10.07
2022-12-31T10:17:27.239Z,15.98
2022-12-31T10:20:08.984Z,11.35
2022-12-31T10:23:21.605Z,14.30
2022-12-31T10:26:16.190Z,10.77
2022-12-31T10:29:11.768Z,15.65
2022-12-31T10:31:58.114Z,10.63
2022-12-31T10:34:34.696Z,7.40
2022-12-31T10:37:11.040Z,13.95
2022-12-31T10:40:18.207Z,10.88
2022-12-31T10:43:04.682Z,8.45
2022-12-31T10:45:57.436Z,11.65
2022-12-31T10:48:37.292Z,11.98
2022-12-31T10:51:19.277Z,12.95
2022-12-31T10:54:15.361Z,18.40
2022-12-31T10:56:58.665Z,10.25
2022-12-31T10:59:29.540Z,6.22
2022-12-31T11:01:58.019Z,9.85
2022-12-31T11:04:41.127Z,10.05
2022-12-31T11:07:26.130Z,13.38
2022-12-31T11:10:32.453Z,9.48
2022-12-31T11:13:35.864Z,7.25
2022-12-31T11:16:12.601Z,11.07
2022-12-31T11:19:07.300Z,10.77
2022-12-31T11:21:53.133Z,14.85
2022-12-31T11:24:27.235Z,13.23
2022-12-31T11:27:42.703Z,12.65
2022-12-31T11:30:41.256Z,15.80
2022-12-31T11:33:36.698Z,10.27
2022-12-31T11:36:13.842Z,11.88
2022-12-31T11:38:54.027Z,13.25
2022-12-31T11:41:39.687Z,13.77
2022-12-31T11:44:23.715Z,8.98
2022-12-31T11:47:02.359Z,11.85
2022-12-31T11:49:55.937Z,9.55
2022-12-31T11:52:37.633Z,22.75
2022-12-31T11:55:36.561Z,18.50
2022-12-31T11:58:13.478Z,14.65
2022-12-31T12:00:49.177Z,7.87
2022-12-31T12:03:17.774Z,12.07
2022-12-31T12:05:45.999Z,16.10
2022-12-31T12:08:15.472Z,13.00
2022-12-31T12:11:00.810Z,16.10
2022-12-31T12:13:29.080Z,16.15
2022-12-31T12:16:00.835Z,19.60
2022-12-31T12:18:40.873Z,15.35
2022-12-31T12:21:16.786Z,14.38
2022-12-31T12:24:06.983Z,19.10
2022-12-31T12:26:42.129Z,20.48
2022-12-31T12:29:14.484Z,10.15
2022-12-31T12:31:56.315Z,19.87
2022-12-31T12:34:30.814Z,11.95
2022-12-31T12:36:59.699Z,13.27
2022-12-31T12:39:34.111Z,13.48
2022-12-31T12:42:10.207Z,9.02
2022-12-31T12:44:38.861Z,10.90
2022-12-31T12:47:15.010Z,9.10
2022-12-31T12:49:53.353Z,12.57
2022-12-31T12:52:56.375Z,11.43
2022-12-31T12:55:46.838Z,10.87
2022-12-31T12:58:43.404Z,15.90
2022-12-31T13:01:37.462Z,14.87
2022-12-31T13:04:40.204Z,7.22
2022-12-31T13:07:24.413Z,17.70
2022-12-31T13:10:16.555Z,11.80
2022-12-31T13:13:22.728Z,14.63
2022-12-31T13:15:53.882Z,19.95
2022-12-31T13:18:33.513Z,15.45
2022-12-31T13:21:27.090Z,11.25
2022-12-31T13:24:04.527Z,19.85
2022-12-31T13:26:39.779Z,16.60
2022-12-31T13:31:43.454Z,18.45
2022-12-31T13:34:20.954Z,19.50
2022-12-31T13:36:51.767Z,14.93
2022-12-31T13:39:26.104Z,19.23
2022-12-31T13:42:20.805Z,19.25
2022-12-31T13:45:10.347Z,18.80
2022-12-31T13:47:45.401Z,15.20
2022-12-31T13:50:28.401Z,11.45
2022-12-31T13:53:06.111Z,16.42
2022-12-31T13:55:41.704Z,20.83
2022-12-31T13:58:53.212Z,14.60
2022-12-31T14:01:33.457Z,21.15
2022-12-31T14:04:14.497Z,15.75
2022-12-31T14:06:56.505Z,14.20
2022-12-31T14:09:28.092Z,18.77
2022-12-31T14:12:19.588Z,17.20
2022-12-31T14:15:29.303Z,10.80
2022-12-31T14:18:06.007Z,11.00
2022-12-31T14:20:34.412Z,18.40
2022-12-31T14:23:41.289Z,15.30
2022-12-31T14:26:41.936Z,20.05
2022-12-31T14:29:10.201Z,16.85
2022-12-31T14:31:53.768Z,18.45
2022-12-31T14:34:30.690Z,20.90
2022-12-31T14:37:18.691Z,22.17
2022-12-31T14:40:05.839Z,20.67
2022-12-31T14:43:05.629Z,27.45
2022-12-31T14:46:02.044Z,18.00
2022-12-31T14:48:54.745Z,17.80
2022-12-31T14:51:30.994Z,23.52
2022-12-31T14:54:00.099Z,18.20
2022-12-31T14:56:40.195Z,24.60
2022-12-31T14:59:27.775Z,24.95
2022-12-31T15:01:58.159Z,11.73
2022-12-31T15:04:43.403Z,28.12
2022-12-31T15:07:21.552Z,22.50
2022-12-31T15:10:10.431Z,21.98
2022-12-31T15:12:56.613Z,28.27
2022-12-31T15:16:02.318Z,32.92
2022-12-31T15:18:45.720Z,27.85
2022-12-31T15:21:26.553Z,22.08
2022-12-31T15:23:55.291Z,24.10
2022-12-31T15:26:34.810Z,21.40
2022-12-31T15:29:08.150Z,17.62
2022-12-31T15:31:45.169Z,26.45
2022-12-31T15:34:33.846Z,35.72
2022-12-31T15:37:05.145Z,26.73
2022-12-31T15:39:43.227Z,25.25
2022-12-31T15:42:47.251Z,29.52
2022-12-31T15:45:24.633Z,31.85
2022-12-31T15:48:00.358Z,31.02
2022-12-31T15:50:29.675Z,41.22
2022-12-31T15:53:03.636Z,32.92
2022-12-31T15:55:54.450Z,36.47
2022-12-31T15:58:27.818Z,27.40
2022-12-31T16:01:03.498Z,28.83
2022-12-31T16:03:33.428Z,27.77
2022-12-31T16:06:04.155Z,36.20
2022-12-31T16:08:35.011Z,34.97
2022-12-31T16:11:06.069Z,22.48
2022-12-31T16:13:39.392Z,18.10
2022-12-31T16:16:19.774Z,17.12
2022-12-31T16:18:50.278Z,16.27
2022-12-31T16:21:34.782Z,14.43
2022-12-31T16:24:26.108Z,26.65
2022-12-31T16:26:57.239Z,16.90
2022-12-31T16:29:26.302Z,23.98
2022-12-31T16:31:54.792Z,20.73
2022-12-31T16:34:26.114Z,19.45
2022-12-31T16:37:02.912Z,29.85
2022-12-31T16:39:36.521Z,16.92
2022-12-31T16:42:13.998Z,20.23
2022-12-31T16:44:42.757Z,25.20
2022-12-31T16:47:18.697Z,32.42
2022-12-31T16:50:12.030Z,23.45
2022-12-31T16:52:43.461Z,23.52
2022-12-31T16:55:32.764Z,30.58
2022-12-31T16:58:18.801Z,27.23
2022-12-31T17:00:49.286Z,29.35
2022-12-31T17:03:23.131Z,28.17
2022-12-31T17:05:57.676Z,34.42
2022-12-31T17:08:29.282Z,33.75
2022-12-31T17:10:57.612Z,37.90
2022-12-31T17:13:34.050Z,36.58
2022-12-31T17:16:02.381Z,25.75
2022-12-31T17:18:36.955Z,32.30
2022-12-31T17:21:10.607Z,28.70
2022-12-31T17:23:41.016Z,28.17
2022-12-31T17:26:11.090Z,30.67
2022-12-31T17:28:47.993Z,24.00
2022-12-31T17:31:27.363Z,20.73
2022-12-31T17:34:13.827Z,29.08
2022-12-31T17:37:01.722Z,24.80
2022-12-31T17:40:40.638Z,22.87
2022-12-31T17:42:51.366Z,24.50
2022-12-31T17:45:22.396Z,64.10
2022-12-31T17:47:53.704Z,57.25
2022-12-31T17:50:24.620Z,46.90
2022-12-31T17:52:57.282Z,29.80
2022-12-31T17:55:26.749Z,30.95
2022-12-31T17:57:57.762Z,32.15
2022-12-31T18:00:27.277Z,37.05
2022-12-31T18:02:56.103Z,32.60
2022-12-31T18:05:25.339Z,24.87
2022-12-31T18:07:54.141Z,15.45
2022-12-31T18:10:25.005Z,30.37
2022-12-31T18:12:53.639Z,18.20
2022-12-31T18:15:23.598Z,14.80
2022-12-31T18:17:52.232Z,19.15
2022-12-31T18:20:20.668Z,20.80
2022-12-31T18:22:48.876Z,35.85
2022-12-31T18:25:20.785Z,28.70
2022-12-31T18:27:50.505Z,21.52
2022-12-31T18:30:19.437Z,31.80
2022-12-31T18:32:47.795Z,28.17
2022-12-31T18:35:49.041Z,26.27
2022-12-31T18:38:14.325Z,20.98
2022-12-31T18:40:46.923Z,25.67
2022-12-31T18:43:17.662Z,28.80
2022-12-31T18:45:47.131Z,29.48
2022-12-31T18:48:16.621Z,35.70
2022-12-31T18:50:46.302Z,51.95
2022-12-31T18:53:23.355Z,38.35
2022-12-31T18:55:56.751Z,38.75
2022-12-31T18:58:25.198Z,47.60
2022-12-31T19:00:54.286Z,33.55
2022-12-31T19:03:27.263Z,33.83
2022-12-31T19:05:55.975Z,50.88
2022-12-31T19:08:24.358Z,33.75
2022-12-31T19:10:52.594Z,27.52
2022-12-31T19:13:22.907Z,31.05
2022-12-31T19:15:53.369Z,23.75
2022-12-31T19:18:21.891Z,30.70
2022-12-31T19:20:52.103Z,22.27
2022-12-31T19:23:22.439Z,22.45
2022-12-31T19:25:51.032Z,29.15
2022-12-31T19:28:20.464Z,24.67
2022-12-31T19:30:48.991Z,20.62
2022-12-31T19:33:18.428Z,16.75
2022-12-31T19:35:47.228Z,22.45
2022-12-31T19:38:21.944Z,24.80
2022-12-31T19:43:20.750Z,25.05
2022-12-31T19:45:50.593Z,19.42
2022-12-31T19:48:24.673Z,21.77
2022-12-31T19:50:57.148Z,35.97
2022-12-31T19:53:27.529Z,27.35
2022-12-31T19:55:55.580Z,30.33
2022-12-31T19:58:26.134Z,32.75
2022-12-31T20:01:02.365Z,24.33
2022-12-31T20:03:35.329Z,29.48
2022-12-31T20:06:06.636Z,17.95
2022-12-31T20:08:36.710Z,24.08
2022-12-31T20:11:12.233Z,17.23
2022-12-31T20:13:41.541Z,21.90
2022-12-31T20:16:12.712Z,20.27
2022-12-31T20:18:42.247Z,28.40
2022-12-31T20:21:14.015Z,19.45
2022-12-31T20:23:42.432Z,22.67
2022-12-31T20:26:10.801Z,26.62
2022-12-31T20:28:39.425Z,31.15
2022-12-31T20:31:10.471Z,36.35
2022-12-31T20:33:39.010Z,30.40
2022-12-31T20:36:09.722Z,30.73
2022-12-31T20:38:38.247Z,23.77
2022-12-31T20:41:18.768Z,21.42
2022-12-31T20:43:48.386Z,16.30
2022-12-31T20:46:20.300Z,26.15
2022-12-31T20:48:51.762Z,17.92
2022-12-31T20:51:21.319Z,22.48
2022-12-31T20:53:55.977Z,26.73
2022-12-31T20:56:26.443Z,21.52
2022-12-31T20:58:55.496Z,24.58
2022-12-31T21:01:25.186Z,24.60
2022-12-31T21:04:05.056Z,22.45
2022-12-31T21:06:35.866Z,20.80
2022-12-31T21:09:06.798Z,23.02
2022-12-31T21:11:53.906Z,26.15
2022-12-31T21:14:22.247Z,29.50
2022-12-31T21:16:50.839Z,22.20
2022-12-31T21:19:18.906Z,29.12
2022-12-31T21:21:48.312Z,26.75
2022-12-31T21:24:23.230Z,31.70
2022-12-31T21:26:55.571Z,26.42
2022-12-31T21:29:24.006Z,25.62
2022-12-31T21:31:52.854Z,28.50
2022-12-31T21:34:21.180Z,23.70
2022-12-31T21:36:49.478Z,23.30
2022-12-31T21:39:17.735Z,21.67
2022-12-31T21:41:51.738Z,22.35
2022-12-31T21:44:21.712Z,25.47
2022-12-31T21:47:40.961Z,22.20
2022-12-31T21:50:10.276Z,25.75
2022-12-31T21:52:41.745Z,27.42
2022-12-31T21:55:29.988Z,37.63
2022-12-31T22:01:07.142Z,21.62
2022-12-31T22:03:36.325Z,33.67
2022-12-31T22:06:13.143Z,32.80
2022-12-31T22:08:43.805Z,24.42
2022-12-31T22:11:12.884Z,45.42
2022-12-31T22:13:41.849Z,35.08
2022-12-31T22:16:11.226Z,24.90
2022-12-31T22:18:42.217Z,26.92
2022-12-31T22:21:19.224Z,24.45
2022-12-31T22:23:50.519Z,25.35
2022-12-31T22:26:21.396Z,23.08
2022-12-31T22:28:50.609Z,20.95
2022-12-31T22:31:21.604Z,23.05
2022-12-31T22:33:49.911Z,21.37
2022-12-31T22:36:21.021Z,29.37
2022-12-31T22:38:50.882Z,23.20
2022-12-31T22:41:21.643Z,31.23
2022-12-31T22:43:58.478Z,32.15
2022-12-31T22:46:31.573Z,34.78
2022-12-31T22:49:01.513Z,33.38
2022-12-31T22:51:56.079Z,31.33
2022-12-31T22:54:19.686Z,22.50
2022-12-31T22:56:48.149Z,22.95
2022-12-31T22:59:16.344Z,33.90
2022-12-31T23:01:44.821Z,19.23
2022-12-31T23:04:12.989Z,21.70
2022-12-31T23:06:43.986Z,16.52
2022-12-31T23:09:33.167Z,16.15
2022-12-31T23:12:02.421Z,14.77
2022-12-31T23:14:49.612Z,15.80
2022-12-31T23:17:42.008Z,31.83
2022-12-31T23:20:37.568Z,21.20
2022-12-31T23:23:12.535Z,22.17
2022-12-31T23:25:41.186Z,18.75
2022-12-31T23:28:12.970Z,12.18
2022-12-31T23:30:42.568Z,14.73
2022-12-31T23:33:17.090Z,13.90
2022-12-31T23:35:46.063Z,11.70
2022-12-31T23:38:16.679Z,17.33
2022-12-31T23:40:45.315Z,13.30
2022-12-31T23:43:21.129Z,11.25
2022-12-31T23:45:51.100Z,26.20
2022-12-31T23:48:19.829Z,21.17
2022-12-31T23:50:53.418Z,18.87
2022-12-31T23:53:24.025Z,26.92
2022-12-31T23:55:53.059Z,24.23
2022-12-31T23:58:22.350Z,37.45
